createdAt,value
2018-12-20T00:02:15.487Z,99.35
2018-12-20T00:05:20.112Z,99.00
2018-12-20T00:08:24.732Z,99.27
2018-12-20T00:11:29.623Z,98.96
2018-12-20T00:14:34.211Z,98.88
2018-12-20T00:17:43.991Z,99.40
2018-12-20T00:20:48.861Z,99.41
2018-12-20T00:23:53.640Z,99.41
2018-12-20T00:26:58.429Z,99.28
2018-12-20T00:30:03.320Z,99.39
2018-12-20T00:33:08.138Z,99.58
2018-12-20T00:36:12.936Z,99.82
2018-12-20T00:39:17.669Z,100.00
2018-12-20T00:42:22.416Z,100.00
2018-12-20T00:45:26.998Z,100.00
2018-12-20T00:48:31.697Z,100.00
2018-12-20T00:51:36.339Z,100.00
2018-12-20T00:54:41.109Z,100.00
2018-12-20T00:57:45.728Z,100.00
2018-12-20T01:00:50.210Z,100.00
2018-12-20T01:03:54.696Z,100.00
2018-12-20T01:06:59.230Z,100.00
2018-12-20T01:10:04.384Z,100.00
2018-12-20T01:13:09.061Z,100.00
2018-12-20T01:16:14.205Z,100.00
2018-12-20T01:19:18.893Z,100.00
2018-12-20T01:22:23.844Z,100.00
2018-12-20T01:25:28.534Z,100.00
2018-12-20T01:28:33.159Z,100.00
2018-12-20T01:31:38.899Z,100.00
2018-12-20T01:34:43.619Z,100.00
2018-12-20T01:37:48.255Z,100.00
2018-12-20T01:40:53.391Z,100.00
2018-12-20T01:43:57.971Z,100.00
2018-12-20T01:47:02.813Z,100.00
2018-12-20T01:50:08.550Z,100.00
2018-12-20T01:53:13.301Z,100.00
2018-12-20T01:56:18.144Z,100.00
2018-12-20T01:59:22.793Z,100.00
2018-12-20T02:02:27.413Z,100.00
2018-12-20T02:05:32.084Z,100.00
2018-12-20T02:08:38.066Z,100.00
2018-12-20T02:11:42.717Z,100.00
2018-12-20T02:14:47.478Z,100.00
2018-12-20T02:17:52.103Z,100.00
2018-12-20T02:20:56.707Z,100.00
2018-12-20T02:24:01.314Z,100.00
2018-12-20T02:27:06.037Z,100.00
2018-12-20T02:30:12.367Z,100.00
2018-12-20T02:33:17.158Z,100.00
2018-12-20T02:36:21.919Z,100.00
2018-12-20T02:39:26.693Z,100.00
2018-12-20T02:42:31.433Z,100.00
2018-12-20T02:45:35.993Z,100.00
2018-12-20T02:48:40.834Z,100.00
2018-12-20T02:51:45.592Z,100.00
2018-12-20T02:54:50.450Z,100.00
2018-12-20T02:57:55.143Z,100.00
2018-12-20T03:01:00.075Z,100.00
2018-12-20T03:04:04.939Z,100.00
2018-12-20T03:07:09.627Z,100.00
2018-12-20T03:10:14.379Z,100.00
2018-12-20T03:13:19.109Z,100.00
2018-12-20T03:16:23.688Z,100.00
2018-12-20T03:19:28.306Z,100.00
2018-12-20T03:22:32.772Z,100.00
2018-12-20T03:25:37.443Z,100.00
2018-12-20T03:28:42.137Z,100.00
2018-12-20T03:31:46.822Z,100.00
2018-12-20T03:34:51.463Z,100.00
2018-12-20T03:37:56.066Z,100.00
2018-12-20T03:41:00.729Z,100.00
2018-12-20T03:44:05.385Z,100.00
2018-12-20T03:47:10.079Z,100.00
2018-12-20T03:50:14.637Z,100.00
2018-12-20T03:53:19.403Z,100.00
2018-12-20T03:56:24.380Z,100.00
2018-12-20T03:59:29.031Z,100.00
2018-12-20T04:02:33.635Z,100.00
2018-12-20T04:05:38.237Z,100.00
2018-12-20T04:08:42.860Z,100.00
2018-12-20T04:11:47.464Z,100.00
2018-12-20T04:14:52.053Z,100.00
2018-12-20T04:17:56.566Z,100.00
2018-12-20T04:21:01.147Z,100.00
2018-12-20T04:24:05.866Z,100.00
2018-12-20T04:27:10.913Z,100.00
2018-12-20T04:30:15.684Z,100.00
2018-12-20T04:33:20.533Z,100.00
2018-12-20T04:36:25.203Z,100.00
2018-12-20T04:39:29.900Z,100.00
2018-12-20T04:42:34.493Z,100.00
2018-12-20T04:45:46.438Z,100.00
2018-12-20T04:48:45.668Z,100.00
2018-12-20T04:51:50.492Z,100.00
2018-12-20T04:54:55.257Z,100.00
2018-12-20T04:57:59.919Z,100.00
2018-12-20T05:01:05.011Z,100.00
2018-12-20T05:04:09.962Z,100.00
2018-12-20T05:07:14.760Z,100.00
2018-12-20T05:10:19.829Z,100.00
2018-12-20T05:13:24.659Z,100.00
2018-12-20T05:16:29.370Z,100.00
2018-12-20T05:19:33.995Z,100.00
2018-12-20T05:22:38.603Z,100.00
2018-12-20T05:25:43.265Z,100.00
2018-12-20T05:28:47.922Z,100.00
2018-12-20T05:31:52.574Z,100.00
2018-12-20T05:34:57.238Z,100.00
2018-12-20T05:38:01.864Z,100.00
2018-12-20T05:41:06.405Z,100.00
2018-12-20T05:44:11.027Z,100.00
2018-12-20T05:50:30.817Z,100.00
2018-12-20T05:53:35.378Z,100.00
2018-12-20T05:56:39.951Z,100.00
2018-12-20T05:59:44.728Z,100.00
2018-12-20T06:02:49.576Z,100.00
2018-12-20T06:05:54.454Z,100.00
2018-12-20T06:08:59.115Z,100.00
2018-12-20T06:12:03.726Z,100.00
2018-12-20T06:15:09.266Z,100.00
2018-12-20T06:18:13.941Z,100.00
2018-12-20T06:21:18.672Z,100.00
2018-12-20T06:24:23.500Z,100.00
2018-12-20T06:27:28.077Z,100.00
2018-12-20T06:30:32.609Z,100.00
2018-12-20T06:33:37.300Z,100.00
2018-12-20T06:36:41.914Z,100.00
2018-12-20T06:39:46.615Z,99.81
2018-12-20T06:42:51.173Z,99.68
2018-12-20T06:45:55.770Z,99.19
2018-12-20T06:49:00.307Z,99.46
2018-12-20T06:52:04.828Z,99.15
2018-12-20T06:55:09.504Z,98.92
2018-12-20T06:58:14.068Z,99.01
2018-12-20T07:01:18.704Z,98.86
2018-12-20T07:04:23.271Z,98.95
2018-12-20T07:07:27.832Z,99.44
2018-12-20T07:10:33.968Z,99.35
2018-12-20T07:13:38.452Z,99.43
2018-12-20T07:16:43.304Z,99.17
2018-12-20T07:19:47.786Z,99.33
2018-12-20T07:22:52.431Z,98.96
2018-12-20T07:25:57.022Z,99.42
2018-12-20T07:29:01.518Z,98.90
2018-12-20T07:32:06.140Z,98.71
2018-12-20T07:35:10.758Z,98.69
2018-12-20T07:38:15.284Z,99.01
2018-12-20T07:41:19.744Z,98.62
2018-12-20T07:44:24.220Z,98.60
2018-12-20T07:47:28.981Z,99.09
2018-12-20T07:50:33.512Z,98.91
2018-12-20T07:53:38.081Z,98.61
2018-12-20T07:56:42.571Z,98.50
2018-12-20T07:59:47.190Z,99.07
2018-12-20T08:02:51.729Z,99.13
2018-12-20T08:05:56.320Z,98.86
2018-12-20T08:09:01.055Z,98.26
2018-12-20T08:12:05.611Z,97.86
2018-12-20T08:15:10.245Z,97.94
2018-12-20T08:18:17.950Z,98.35
2018-12-20T08:21:22.520Z,97.90
2018-12-20T08:24:27.058Z,98.16
2018-12-20T08:27:31.611Z,98.05
2018-12-20T08:30:36.272Z,97.59
2018-12-20T08:33:40.955Z,96.86
2018-12-20T08:36:48.734Z,97.43
2018-12-20T08:39:53.332Z,96.13
2018-12-20T08:42:57.911Z,95.24
2018-12-20T08:46:02.442Z,95.23
2018-12-20T08:49:06.909Z,95.88
2018-12-20T08:52:11.462Z,96.53
2018-12-20T08:55:16.016Z,97.09
2018-12-20T08:58:20.730Z,96.63
2018-12-20T09:01:25.409Z,97.05
2018-12-20T09:04:29.979Z,96.24
2018-12-20T09:07:34.487Z,96.21
2018-12-20T09:10:39.072Z,95.55
2018-12-20T09:13:43.544Z,95.29
2018-12-20T09:16:48.286Z,94.61
2018-12-20T09:19:52.814Z,94.45
2018-12-20T09:22:57.600Z,94.46
2018-12-20T09:26:02.356Z,92.68
2018-12-20T09:29:06.830Z,93.02
2018-12-20T09:32:11.440Z,92.88
2018-12-20T09:35:16.065Z,92.35
2018-12-20T09:38:20.670Z,92.55
2018-12-20T09:41:25.227Z,91.29
2018-12-20T09:44:29.773Z,91.79
2018-12-20T09:47:40.092Z,92.14
2018-12-20T09:50:44.678Z,91.54
2018-12-20T09:53:49.428Z,91.03
2018-12-20T09:56:53.998Z,91.85
2018-12-20T09:59:58.689Z,92.78
2018-12-20T10:03:03.488Z,92.07
2018-12-20T10:06:08.215Z,92.65
2018-12-20T10:09:12.862Z,92.32
2018-12-20T10:12:17.389Z,91.68
2018-12-20T10:15:21.994Z,91.33
2018-12-20T10:18:26.791Z,91.79
2018-12-20T10:24:45.641Z,91.88
2018-12-20T10:27:50.198Z,92.21
2018-12-20T10:30:54.681Z,91.59
2018-12-20T10:33:59.288Z,91.46
2018-12-20T10:37:03.859Z,92.47
2018-12-20T10:40:08.635Z,92.99
2018-12-20T10:43:13.216Z,91.99
2018-12-20T10:46:17.683Z,92.32
2018-12-20T10:49:22.248Z,91.95
2018-12-20T10:52:26.833Z,91.49
2018-12-20T10:55:31.312Z,91.01
2018-12-20T10:58:35.832Z,91.65
2018-12-20T11:01:47.146Z,91.82
2018-12-20T11:04:57.056Z,93.17
2018-12-20T11:08:22.820Z,94.02
2018-12-20T11:11:31.706Z,95.12
2018-12-20T11:14:36.389Z,95.29
2018-12-20T11:17:40.987Z,95.13
2018-12-20T11:20:45.541Z,93.60
2018-12-20T11:23:50.256Z,93.78
2018-12-20T11:26:54.722Z,93.12
2018-12-20T11:29:59.464Z,92.62
2018-12-20T11:33:04.163Z,93.35
2018-12-20T11:36:08.869Z,93.08
2018-12-20T11:39:13.393Z,93.84
2018-12-20T11:42:17.883Z,92.38
2018-12-20T11:45:22.438Z,92.04
2018-12-20T11:48:26.921Z,91.57
2018-12-20T11:51:31.965Z,91.12
2018-12-20T11:54:37.282Z,92.30
2018-12-20T11:57:41.810Z,92.67
2018-12-20T12:00:46.306Z,91.14
2018-12-20T12:03:57.346Z,91.65
2018-12-20T12:06:57.517Z,89.38
2018-12-20T12:10:02.073Z,88.44
2018-12-20T12:13:06.752Z,88.76
2018-12-20T12:16:11.590Z,88.61
2018-12-20T12:19:16.242Z,88.76
2018-12-20T12:22:21.513Z,90.11
2018-12-20T12:25:26.188Z,90.41
2018-12-20T12:28:30.876Z,90.57
2018-12-20T12:31:35.632Z,91.59
2018-12-20T12:34:40.476Z,91.04
2018-12-20T12:37:45.049Z,90.49
2018-12-20T12:40:49.746Z,88.03
2018-12-20T12:43:54.481Z,88.09
2018-12-20T12:46:58.995Z,88.78
2018-12-20T12:50:03.863Z,88.14
2018-12-20T12:53:08.762Z,88.08
2018-12-20T12:56:13.295Z,87.38
2018-12-20T12:59:18.198Z,87.81
2018-12-20T13:02:22.926Z,88.19
2018-12-20T13:05:27.568Z,87.78
2018-12-20T13:08:32.089Z,86.37
2018-12-20T13:11:36.573Z,86.39
2018-12-20T13:14:41.918Z,86.33
2018-12-20T13:17:46.581Z,88.04
2018-12-20T13:20:51.118Z,86.69
2018-12-20T13:23:55.597Z,84.95
2018-12-20T13:27:00.963Z,86.91
2018-12-20T13:30:09.358Z,85.65
2018-12-20T13:33:14.002Z,87.66
2018-12-20T13:36:19.502Z,86.46
2018-12-20T13:39:24.052Z,87.28
2018-12-20T13:42:28.745Z,87.81
2018-12-20T13:45:33.347Z,86.33
2018-12-20T13:48:38.022Z,86.74
2018-12-20T13:51:42.520Z,86.60
2018-12-20T13:54:47.163Z,85.95
2018-12-20T13:57:51.743Z,85.71
2018-12-20T14:00:56.338Z,84.26
2018-12-20T14:04:00.869Z,86.03
2018-12-20T14:07:05.904Z,86.14
2018-12-20T14:10:10.797Z,87.30
2018-12-20T14:13:15.393Z,86.30
2018-12-20T14:16:19.918Z,86.70
2018-12-20T14:19:24.998Z,87.35
2018-12-20T14:22:29.717Z,87.57
2018-12-20T14:25:34.228Z,87.83
2018-12-20T14:28:39.644Z,87.50
2018-12-20T14:31:44.461Z,88.69
2018-12-20T14:34:49.180Z,87.53
2018-12-20T14:37:53.859Z,88.42
2018-12-20T14:40:58.447Z,88.82
2018-12-20T14:44:03.261Z,89.33
2018-12-20T14:47:08.484Z,91.06
2018-12-20T14:50:13.083Z,91.37
2018-12-20T14:53:19.385Z,90.25
2018-12-20T14:56:24.075Z,91.22
2018-12-20T14:59:28.588Z,91.19
2018-12-20T15:02:33.182Z,91.97
2018-12-20T15:05:37.749Z,91.57
2018-12-20T15:08:42.314Z,91.28
2018-12-20T15:11:46.795Z,91.56
2018-12-20T15:14:51.319Z,92.61
2018-12-20T15:17:55.775Z,89.74
2018-12-20T15:21:00.295Z,91.57
2018-12-20T15:24:04.977Z,91.70
2018-12-20T15:27:09.618Z,92.11
2018-12-20T15:30:14.224Z,92.68
2018-12-20T15:33:23.099Z,93.66
2018-12-20T15:36:27.673Z,93.53
2018-12-20T15:39:32.159Z,93.25
2018-12-20T15:42:36.774Z,93.48
2018-12-20T15:45:41.429Z,94.49
2018-12-20T15:48:45.880Z,95.04
2018-12-20T15:51:50.373Z,95.14
2018-12-20T15:54:54.809Z,95.50
2018-12-20T15:57:59.349Z,96.15
2018-12-20T16:01:03.993Z,95.99
2018-12-20T16:04:08.554Z,97.15
2018-12-20T16:07:13.258Z,96.70
2018-12-20T16:10:17.891Z,97.18
2018-12-20T16:13:22.445Z,97.13
2018-12-20T16:16:27.043Z,97.54
2018-12-20T16:19:31.645Z,97.22
2018-12-20T16:22:36.130Z,97.03
2018-12-20T16:25:40.892Z,97.09
2018-12-20T16:28:45.389Z,97.21
2018-12-20T16:31:49.930Z,97.17
2018-12-20T16:34:54.509Z,96.63
2018-12-20T16:37:59.121Z,96.69
2018-12-20T16:41:03.781Z,97.57
2018-12-20T16:44:08.592Z,97.26
2018-12-20T16:47:13.279Z,96.87
2018-12-20T16:50:17.920Z,96.70
2018-12-20T16:53:22.597Z,97.10
2018-12-20T16:56:27.138Z,96.58
2018-12-20T16:59:31.628Z,96.48
2018-12-20T17:02:36.298Z,95.87
2018-12-20T17:05:40.910Z,95.78
2018-12-20T17:08:48.408Z,95.18
2018-12-20T17:11:52.427Z,94.92
2018-12-20T17:14:57.055Z,94.63
2018-12-20T17:18:01.639Z,96.02
2018-12-20T17:21:06.296Z,95.43
2018-12-20T17:24:10.916Z,96.42
2018-12-20T17:27:15.428Z,96.47
2018-12-20T17:30:20.132Z,96.48
2018-12-20T17:33:24.991Z,96.31
2018-12-20T17:36:29.663Z,96.30
2018-12-20T17:39:34.277Z,97.46
2018-12-20T17:42:38.922Z,97.04
2018-12-20T17:45:43.567Z,96.54
2018-12-20T17:48:48.308Z,96.71
2018-12-20T17:51:52.944Z,96.44
2018-12-20T17:54:57.448Z,96.13
2018-12-20T17:58:02.053Z,96.08
2018-12-20T18:01:06.893Z,95.07
2018-12-20T18:04:11.474Z,95.29
2018-12-20T18:07:16.195Z,91.94
2018-12-20T18:10:20.969Z,92.46
2018-12-20T18:13:25.700Z,93.17
2018-12-20T18:16:30.429Z,93.29
2018-12-20T18:19:38.952Z,92.62
2018-12-20T18:22:41.677Z,92.25
2018-12-20T18:25:46.369Z,91.64
2018-12-20T18:28:50.955Z,91.04
2018-12-20T18:31:55.466Z,92.31
2018-12-20T18:35:00.066Z,91.59
2018-12-20T18:38:04.594Z,92.94
2018-12-20T18:41:09.199Z,93.42
2018-12-20T18:44:13.744Z,93.61
2018-12-20T18:47:18.291Z,93.12
2018-12-20T18:50:22.942Z,92.96
2018-12-20T18:53:27.557Z,90.40
2018-12-20T18:56:32.304Z,89.76
2018-12-20T18:59:36.918Z,90.43
2018-12-20T19:02:41.554Z,89.98
2018-12-20T19:05:46.146Z,89.19
2018-12-20T19:12:04.689Z,89.69
2018-12-20T19:15:10.447Z,89.44
2018-12-20T19:18:15.817Z,90.08
2018-12-20T19:21:20.574Z,90.23
2018-12-20T19:24:25.218Z,90.89
2018-12-20T19:27:29.832Z,90.36
2018-12-20T19:30:34.457Z,90.69
2018-12-20T19:33:39.119Z,90.68
2018-12-20T19:36:43.778Z,90.02
2018-12-20T19:43:08.793Z,88.16
2018-12-20T19:46:13.343Z,87.90
2018-12-20T19:49:17.838Z,88.95
2018-12-20T19:52:22.408Z,87.36
2018-12-20T19:55:26.925Z,87.33
2018-12-20T19:58:31.442Z,87.88
2018-12-20T20:01:35.889Z,88.21
2018-12-20T20:04:40.410Z,88.61
2018-12-20T20:07:45.021Z,89.21
2018-12-20T20:10:49.626Z,88.57
2018-12-20T20:13:54.086Z,87.51
2018-12-20T20:16:58.681Z,87.87
2018-12-20T20:20:03.948Z,88.61
2018-12-20T20:23:08.758Z,89.10
2018-12-20T20:26:13.314Z,89.41
2018-12-20T20:29:17.870Z,88.03
2018-12-20T20:32:22.523Z,89.07
2018-12-20T20:35:27.040Z,89.35
2018-12-20T20:38:31.602Z,89.08
2018-12-20T20:41:36.116Z,89.23
2018-12-20T20:44:40.724Z,87.58
2018-12-20T20:47:45.263Z,87.56
2018-12-20T20:50:50.072Z,88.02
2018-12-20T20:53:54.637Z,87.68
2018-12-20T20:56:59.147Z,88.96
2018-12-20T21:00:04.377Z,89.30
2018-12-20T21:03:09.020Z,87.81
2018-12-20T21:06:13.574Z,87.07
2018-12-20T21:09:18.320Z,88.33
2018-12-20T21:12:23.337Z,88.71
2018-12-20T21:15:28.155Z,88.70
2018-12-20T21:18:32.974Z,86.40
2018-12-20T21:21:37.674Z,86.06
2018-12-20T21:24:42.270Z,86.20
2018-12-20T21:27:46.819Z,87.36
2018-12-20T21:30:51.335Z,87.42
2018-12-20T21:33:55.991Z,88.17
2018-12-20T21:37:00.619Z,87.48
2018-12-20T21:40:06.177Z,88.50
2018-12-20T21:43:10.866Z,88.77
2018-12-20T21:46:15.615Z,90.14
2018-12-20T21:49:20.260Z,89.02
2018-12-20T21:52:24.911Z,89.25
2018-12-20T21:55:29.496Z,88.56
2018-12-20T21:58:34.157Z,89.22
2018-12-20T22:01:38.922Z,88.14
2018-12-20T22:04:43.666Z,88.97
2018-12-20T22:07:48.192Z,88.45
2018-12-20T22:10:52.745Z,89.46
2018-12-20T22:13:57.270Z,89.92
2018-12-20T22:17:01.867Z,89.89
2018-12-20T22:20:07.575Z,89.89
2018-12-20T22:23:12.135Z,89.60
2018-12-20T22:26:16.713Z,89.31
2018-12-20T22:29:21.923Z,88.89
2018-12-20T22:32:26.500Z,87.74
2018-12-20T22:35:30.976Z,86.82
2018-12-20T22:38:35.553Z,85.98
2018-12-20T22:41:40.137Z,84.70
2018-12-20T22:44:44.702Z,84.73
2018-12-20T22:47:49.458Z,85.18
2018-12-20T22:50:56.025Z,85.28
2018-12-20T22:54:00.894Z,85.30
2018-12-20T22:57:05.313Z,85.84
2018-12-20T23:00:12.312Z,85.88
2018-12-20T23:03:16.946Z,85.65
2018-12-20T23:06:21.504Z,86.17
2018-12-20T23:09:26.006Z,85.64
2018-12-20T23:12:30.637Z,84.85
2018-12-20T23:15:35.201Z,85.17
2018-12-20T23:18:39.815Z,85.15
2018-12-20T23:21:44.337Z,84.04
2018-12-20T23:24:48.858Z,85.14
2018-12-20T23:27:53.347Z,83.75
2018-12-20T23:30:57.949Z,84.82
2018-12-20T23:34:02.452Z,85.25
2018-12-20T23:37:07.212Z,86.08
2018-12-20T23:40:12.529Z,85.66
2018-12-20T23:43:17.075Z,84.96
2018-12-20T23:46:21.724Z,85.31
2018-12-20T23:49:26.330Z,85.06
2018-12-20T23:52:30.866Z,85.48
2018-12-20T23:55:35.471Z,86.64
2018-12-20T23:58:40.029Z,84.91
